sensor_id;sensor_type;location;lat;lon;timestamp;temperature;humidity
7502;DHT22;3792;47.740;7.606;2024-03-25T00:01:48;5.20;99.90
7502;DHT22;3792;47.740;7.606;2024-03-25T00:04:14;5.20;99.90
7502;DHT22;3792;47.740;7.606;2024-03-25T00:06:41;5.10;99.90
7502;DHT22;3792;47.740;7.606;2024-03-25T00:09:07;5.10;99.90
7502;DHT22;3792;47.740;7.606;2024-03-25T00:11:39;5.10;99.90
7502;DHT22;3792;47.740;7.606;2024-03-25T00:14:07;5.20;99.90
7502;DHT22;3792;47.740;7.606;2024-03-25T00:16:34;5.10;99.90
7502;DHT22;3792;47.740;7.606;2024-03-25T00:19:00;5.10;99.90
7502;DHT22;3792;47.740;7.606;2024-03-25T00:21:28;5.10;99.90
7502;DHT22;3792;47.740;7.606;2024-03-25T00:23:54;5.20;99.90
7502;DHT22;3792;47.740;7.606;2024-03-25T00:26:22;5.20;99.90
7502;DHT22;3792;47.740;7.606;2024-03-25T00:28:48;5.30;99.90
7502;DHT22;3792;47.740;7.606;2024-03-25T00:31:16;5.40;99.90
7502;DHT22;3792;47.740;7.606;2024-03-25T00:33:42;5.30;99.90
7502;DHT22;3792;47.740;7.606;2024-03-25T00:36:09;5.30;99.90
7502;DHT22;3792;47.740;7.606;2024-03-25T00:38:35;5.30;99.90
7502;DHT22;3792;47.740;7.606;2024-03-25T00:41:03;5.20;99.90
7502;DHT22;3792;47.740;7.606;2024-03-25T00:43:29;5.20;99.90
7502;DHT22;3792;47.740;7.606;2024-03-25T00:45:56;5.10;99.90
7502;DHT22;3792;47.740;7.606;2024-03-25T00:48:23;5.10;99.90
7502;DHT22;3792;47.740;7.606;2024-03-25T00:50:50;5.20;99.90
7502;DHT22;3792;47.740;7.606;2024-03-25T00:53:16;5.20;99.90
7502;DHT22;3792;47.740;7.606;2024-03-25T00:55:43;5.30;99.90
7502;DHT22;3792;47.740;7.606;2024-03-25T00:58:09;5.30;99.90
7502;DHT22;3792;47.740;7.606;2024-03-25T01:00:37;5.30;99.90
7502;DHT22;3792;47.740;7.606;2024-03-25T01:03:03;5.40;99.90
7502;DHT22;3792;47.740;7.606;2024-03-25T01:05:31;5.40;99.90
7502;DHT22;3792;47.740;7.606;2024-03-25T01:07:57;5.40;99.90
7502;DHT22;3792;47.740;7.606;2024-03-25T01:10:24;5.40;99.90
7502;DHT22;3792;47.740;7.606;2024-03-25T01:12:51;5.50;99.90
7502;DHT22;3792;47.740;7.606;2024-03-25T01:15:18;5.50;99.90
7502;DHT22;3792;47.740;7.606;2024-03-25T01:17:44;5.50;99.90
7502;DHT22;3792;47.740;7.606;2024-03-25T01:20:11;5.60;99.90
7502;DHT22;3792;47.740;7.606;2024-03-25T01:22:39;5.60;99.90
7502;DHT22;3792;47.740;7.606;2024-03-25T01:25:07;5.60;99.90
7502;DHT22;3792;47.740;7.606;2024-03-25T01:27:33;5.60;99.90
7502;DHT22;3792;47.740;7.606;2024-03-25T01:30:00;5.70;99.90
7502;DHT22;3792;47.740;7.606;2024-03-25T01:32:27;5.70;99.90
7502;DHT22;3792;47.740;7.606;2024-03-25T01:34:54;5.70;99.90
7502;DHT22;3792;47.740;7.606;2024-03-25T01:37:20;5.70;99.90
7502;DHT22;3792;47.740;7.606;2024-03-25T01:39:49;5.60;99.90
7502;DHT22;3792;47.740;7.606;2024-03-25T01:42:15;5.60;99.90
7502;DHT22;3792;47.740;7.606;2024-03-25T01:44:42;5.60;99.90
7502;DHT22;3792;47.740;7.606;2024-03-25T01:47:08;5.60;99.90
7502;DHT22;3792;47.740;7.606;2024-03-25T01:49:35;5.60;99.90
7502;DHT22;3792;47.740;7.606;2024-03-25T01:52:01;5.60;99.90
7502;DHT22;3792;47.740;7.606;2024-03-25T01:54:28;5.50;99.90
7502;DHT22;3792;47.740;7.606;2024-03-25T01:56:56;5.50;99.90
7502;DHT22;3792;47.740;7.606;2024-03-25T01:59:23;5.40;99.90
7502;DHT22;3792;47.740;7.606;2024-03-25T02:01:51;5.40;99.90
7502;DHT22;3792;47.740;7.606;2024-03-25T02:04:18;5.40;99.90
7502;DHT22;3792;47.740;7.606;2024-03-25T02:06:45;5.50;99.90
7502;DHT22;3792;47.740;7.606;2024-03-25T02:09:12;5.50;99.90
7502;DHT22;3792;47.740;7.606;2024-03-25T02:11:39;5.50;99.90
7502;DHT22;3792;47.740;7.606;2024-03-25T02:14:09;5.60;99.90
7502;DHT22;3792;47.740;7.606;2024-03-25T02:16:35;5.60;99.90
7502;DHT22;3792;47.740;7.606;2024-03-25T02:19:02;5.60;99.90
7502;DHT22;3792;47.740;7.606;2024-03-25T02:21:28;5.70;99.90
7502;DHT22;3792;47.740;7.606;2024-03-25T02:23:57;5.70;99.90
7502;DHT22;3792;47.740;7.606;2024-03-25T02:26:26;5.70;99.90
7502;DHT22;3792;47.740;7.606;2024-03-25T02:28:53;5.60;99.90
7502;DHT22;3792;47.740;7.606;2024-03-25T02:31:19;5.60;99.90
7502;DHT22;3792;47.740;7.606;2024-03-25T02:33:46;5.60;99.90
7502;DHT22;3792;47.740;7.606;2024-03-25T02:36:12;5.60;99.90
7502;DHT22;3792;47.740;7.606;2024-03-25T02:38:40;5.50;99.90
7502;DHT22;3792;47.740;7.606;2024-03-25T02:41:06;5.50;99.90
7502;DHT22;3792;47.740;7.606;2024-03-25T02:43:35;5.50;99.90
7502;DHT22;3792;47.740;7.606;2024-03-25T02:46:01;5.50;99.90
7502;DHT22;3792;47.740;7.606;2024-03-25T02:48:28;5.50;99.90
7502;DHT22;3792;47.740;7.606;2024-03-25T02:50:54;5.50;99.90
7502;DHT22;3792;47.740;7.606;2024-03-25T02:53:21;5.50;99.90
7502;DHT22;3792;47.740;7.606;2024-03-25T02:55:47;5.40;99.90
7502;DHT22;3792;47.740;7.606;2024-03-25T02:58:14;5.40;99.90
7502;DHT22;3792;47.740;7.606;2024-03-25T03:00:41;5.40;99.90
7502;DHT22;3792;47.740;7.606;2024-03-25T03:03:08;5.40;99.90
7502;DHT22;3792;47.740;7.606;2024-03-25T03:05:34;5.40;99.90
7502;DHT22;3792;47.740;7.606;2024-03-25T03:08:02;5.30;99.90
7502;DHT22;3792;47.740;7.606;2024-03-25T03:10:28;5.30;99.90
7502;DHT22;3792;47.740;7.606;2024-03-25T03:12:55;5.20;99.90
7502;DHT22;3792;47.740;7.606;2024-03-25T03:15:21;5.30;99.90
7502;DHT22;3792;47.740;7.606;2024-03-25T03:17:49;5.20;99.90
7502;DHT22;3792;47.740;7.606;2024-03-25T03:20:15;5.20;99.90
7502;DHT22;3792;47.740;7.606;2024-03-25T03:22:42;5.20;99.90
7502;DHT22;3792;47.740;7.606;2024-03-25T03:25:08;5.10;99.90
7502;DHT22;3792;47.740;7.606;2024-03-25T03:27:35;5.10;99.90
7502;DHT22;3792;47.740;7.606;2024-03-25T03:30:01;5.10;99.90
7502;DHT22;3792;47.740;7.606;2024-03-25T03:32:28;5.10;99.90
7502;DHT22;3792;47.740;7.606;2024-03-25T03:34:55;5.00;99.90
7502;DHT22;3792;47.740;7.606;2024-03-25T03:37:22;5.00;99.90
7502;DHT22;3792;47.740;7.606;2024-03-25T03:39:48;5.00;99.90
7502;DHT22;3792;47.740;7.606;2024-03-25T03:42:15;5.00;99.90
7502;DHT22;3792;47.740;7.606;2024-03-25T03:44:41;4.90;99.90
7502;DHT22;3792;47.740;7.606;2024-03-25T03:47:08;4.90;99.90
7502;DHT22;3792;47.740;7.606;2024-03-25T03:49:34;4.80;99.90
7502;DHT22;3792;47.740;7.606;2024-03-25T03:52:03;4.80;99.90
7502;DHT22;3792;47.740;7.606;2024-03-25T03:54:29;4.80;99.90
7502;DHT22;3792;47.740;7.606;2024-03-25T03:56:56;4.80;99.90
7502;DHT22;3792;47.740;7.606;2024-03-25T03:59:22;4.80;99.90
7502;DHT22;3792;47.740;7.606;2024-03-25T04:01:49;4.70;99.90
7502;DHT22;3792;47.740;7.606;2024-03-25T04:04:15;4.70;99.90
7502;DHT22;3792;47.740;7.606;2024-03-25T04:06:42;4.60;99.90
7502;DHT22;3792;47.740;7.606;2024-03-25T04:09:10;4.50;99.90
7502;DHT22;3792;47.740;7.606;2024-03-25T04:11:37;4.50;99.90
7502;DHT22;3792;47.740;7.606;2024-03-25T04:14:03;4.50;99.90
7502;DHT22;3792;47.740;7.606;2024-03-25T04:16:30;4.50;99.90
7502;DHT22;3792;47.740;7.606;2024-03-25T04:18:56;4.50;99.90
7502;DHT22;3792;47.740;7.606;2024-03-25T04:21:23;4.50;99.90
7502;DHT22;3792;47.740;7.606;2024-03-25T04:23:49;4.50;99.90
7502;DHT22;3792;47.740;7.606;2024-03-25T04:26:18;4.50;99.90
7502;DHT22;3792;47.740;7.606;2024-03-25T04:28:44;4.50;99.90
7502;DHT22;3792;47.740;7.606;2024-03-25T04:31:11;4.50;99.90
7502;DHT22;3792;47.740;7.606;2024-03-25T04:33:37;4.40;99.90
7502;DHT22;3792;47.740;7.606;2024-03-25T04:36:04;4.40;99.90
7502;DHT22;3792;47.740;7.606;2024-03-25T04:38:30;4.40;99.90
7502;DHT22;3792;47.740;7.606;2024-03-25T04:40:56;4.30;99.90
7502;DHT22;3792;47.740;7.606;2024-03-25T04:43:24;4.40;99.90
7502;DHT22;3792;47.740;7.606;2024-03-25T04:45:50;4.40;99.90
7502;DHT22;3792;47.740;7.606;2024-03-25T04:48:16;4.30;99.90
7502;DHT22;3792;47.740;7.606;2024-03-25T04:50:42;4.20;99.90
7502;DHT22;3792;47.740;7.606;2024-03-25T04:53:08;4.20;99.90
7502;DHT22;3792;47.740;7.606;2024-03-25T04:55:34;4.10;99.90
7502;DHT22;3792;47.740;7.606;2024-03-25T04:58:00;4.10;99.90
7502;DHT22;3792;47.740;7.606;2024-03-25T05:00:27;4.20;99.90
7502;DHT22;3792;47.740;7.606;2024-03-25T05:02:53;4.20;99.90
7502;DHT22;3792;47.740;7.606;2024-03-25T05:05:19;4.10;99.90
7502;DHT22;3792;47.740;7.606;2024-03-25T05:07:45;4.10;99.90
7502;DHT22;3792;47.740;7.606;2024-03-25T05:10:11;4.20;99.90
7502;DHT22;3792;47.740;7.606;2024-03-25T05:12:38;4.20;99.90
7502;DHT22;3792;47.740;7.606;2024-03-25T05:15:05;4.20;99.90
7502;DHT22;3792;47.740;7.606;2024-03-25T05:17:33;4.20;99.90
7502;DHT22;3792;47.740;7.606;2024-03-25T05:19:59;4.30;99.90
7502;DHT22;3792;47.740;7.606;2024-03-25T05:22:25;4.30;99.90
7502;DHT22;3792;47.740;7.606;2024-03-25T05:24:51;4.20;99.90
7502;DHT22;3792;47.740;7.606;2024-03-25T05:27:17;4.20;99.90
7502;DHT22;3792;47.740;7.606;2024-03-25T05:29:43;4.20;99.90
7502;DHT22;3792;47.740;7.606;2024-03-25T05:32:09;4.20;99.90
7502;DHT22;3792;47.740;7.606;2024-03-25T05:34:36;4.20;99.90
7502;DHT22;3792;47.740;7.606;2024-03-25T05:37:02;4.10;99.90
7502;DHT22;3792;47.740;7.606;2024-03-25T05:39:28;4.10;99.90
7502;DHT22;3792;47.740;7.606;2024-03-25T05:41:54;4.10;99.90
7502;DHT22;3792;47.740;7.606;2024-03-25T05:44:20;4.10;99.90
7502;DHT22;3792;47.740;7.606;2024-03-25T05:46:46;4.10;99.90
7502;DHT22;3792;47.740;7.606;2024-03-25T05:49:12;4.10;99.90
7502;DHT22;3792;47.740;7.606;2024-03-25T05:51:40;4.10;99.90
7502;DHT22;3792;47.740;7.606;2024-03-25T05:54:06;4.10;99.90
7502;DHT22;3792;47.740;7.606;2024-03-25T05:56:32;4.10;99.90
7502;DHT22;3792;47.740;7.606;2024-03-25T05:58:58;4.00;99.90
7502;DHT22;3792;47.740;7.606;2024-03-25T06:01:24;4.10;99.90
7502;DHT22;3792;47.740;7.606;2024-03-25T06:03:50;4.10;99.90
7502;DHT22;3792;47.740;7.606;2024-03-25T06:06:16;4.10;99.90
7502;DHT22;3792;47.740;7.606;2024-03-25T06:08:44;4.00;99.90
7502;DHT22;3792;47.740;7.606;2024-03-25T06:11:10;4.10;99.90
7502;DHT22;3792;47.740;7.606;2024-03-25T06:13:36;4.10;99.90
7502;DHT22;3792;47.740;7.606;2024-03-25T06:16:02;4.10;99.90
7502;DHT22;3792;47.740;7.606;2024-03-25T06:18:28;4.00;99.90
7502;DHT22;3792;47.740;7.606;2024-03-25T06:20:54;3.90;99.90
7502;DHT22;3792;47.740;7.606;2024-03-25T06:23:24;4.00;99.90
7502;DHT22;3792;47.740;7.606;2024-03-25T06:25:52;4.10;99.90
7502;DHT22;3792;47.740;7.606;2024-03-25T06:28:19;4.10;99.90
7502;DHT22;3792;47.740;7.606;2024-03-25T06:30:45;4.20;99.90
7502;DHT22;3792;47.740;7.606;2024-03-25T06:33:29;4.40;99.90
7502;DHT22;3792;47.740;7.606;2024-03-25T06:36:14;4.60;99.90
7502;DHT22;3792;47.740;7.606;2024-03-25T06:38:40;4.80;99.90
7502;DHT22;3792;47.740;7.606;2024-03-25T06:41:07;5.00;99.90
7502;DHT22;3792;47.740;7.606;2024-03-25T06:43:35;5.10;99.90
7502;DHT22;3792;47.740;7.606;2024-03-25T06:46:01;5.20;99.90
7502;DHT22;3792;47.740;7.606;2024-03-25T06:48:27;5.40;99.90
7502;DHT22;3792;47.740;7.606;2024-03-25T06:50:54;5.60;99.90
7502;DHT22;3792;47.740;7.606;2024-03-25T06:53:20;5.70;99.90
7502;DHT22;3792;47.740;7.606;2024-03-25T06:55:54;5.80;99.90
7502;DHT22;3792;47.740;7.606;2024-03-25T06:58:23;6.00;99.90
7502;DHT22;3792;47.740;7.606;2024-03-25T07:00:50;6.20;99.90
7502;DHT22;3792;47.740;7.606;2024-03-25T07:03:17;6.30;99.90
7502;DHT22;3792;47.740;7.606;2024-03-25T07:05:44;6.30;99.90
7502;DHT22;3792;47.740;7.606;2024-03-25T07:08:11;6.20;99.90
7502;DHT22;3792;47.740;7.606;2024-03-25T07:10:37;6.30;99.90
7502;DHT22;3792;47.740;7.606;2024-03-25T07:13:04;6.60;99.90
7502;DHT22;3792;47.740;7.606;2024-03-25T07:15:31;6.80;99.90
7502;DHT22;3792;47.740;7.606;2024-03-25T07:17:57;6.90;99.90
7502;DHT22;3792;47.740;7.606;2024-03-25T07:20:23;7.10;99.90
7502;DHT22;3792;47.740;7.606;2024-03-25T07:22:49;7.30;99.90
7502;DHT22;3792;47.740;7.606;2024-03-25T07:25:15;7.40;99.90
7502;DHT22;3792;47.740;7.606;2024-03-25T07:27:41;7.50;99.90
7502;DHT22;3792;47.740;7.606;2024-03-25T07:30:08;7.80;99.90
7502;DHT22;3792;47.740;7.606;2024-03-25T07:32:35;8.10;99.90
7502;DHT22;3792;47.740;7.606;2024-03-25T07:35:01;8.40;99.90
7502;DHT22;3792;47.740;7.606;2024-03-25T07:37:28;8.60;99.90
7502;DHT22;3792;47.740;7.606;2024-03-25T07:39:54;8.60;99.90
7502;DHT22;3792;47.740;7.606;2024-03-25T07:42:20;8.70;99.90
7502;DHT22;3792;47.740;7.606;2024-03-25T07:44:46;8.90;99.90
7502;DHT22;3792;47.740;7.606;2024-03-25T07:47:12;9.10;99.90
7502;DHT22;3792;47.740;7.606;2024-03-25T07:49:39;9.30;99.90
7502;DHT22;3792;47.740;7.606;2024-03-25T07:52:05;9.20;99.90
7502;DHT22;3792;47.740;7.606;2024-03-25T07:54:31;9.20;99.90
7502;DHT22;3792;47.740;7.606;2024-03-25T07:56:57;9.40;99.90
7502;DHT22;3792;47.740;7.606;2024-03-25T07:59:24;9.50;99.90
7502;DHT22;3792;47.740;7.606;2024-03-25T08:01:50;9.70;99.90
7502;DHT22;3792;47.740;7.606;2024-03-25T08:04:16;9.80;99.90
7502;DHT22;3792;47.740;7.606;2024-03-25T08:06:43;9.80;99.90
7502;DHT22;3792;47.740;7.606;2024-03-25T08:09:09;9.80;99.90
7502;DHT22;3792;47.740;7.606;2024-03-25T08:11:36;10.00;99.90
7502;DHT22;3792;47.740;7.606;2024-03-25T08:14:02;10.30;99.90
7502;DHT22;3792;47.740;7.606;2024-03-25T08:16:28;10.50;99.90
7502;DHT22;3792;47.740;7.606;2024-03-25T08:18:54;10.70;99.90
7502;DHT22;3792;47.740;7.606;2024-03-25T08:21:20;10.60;99.90
7502;DHT22;3792;47.740;7.606;2024-03-25T08:23:47;10.70;99.90
7502;DHT22;3792;47.740;7.606;2024-03-25T08:26:13;10.80;99.90
7502;DHT22;3792;47.740;7.606;2024-03-25T08:28:39;10.60;99.90
7502;DHT22;3792;47.740;7.606;2024-03-25T08:31:05;10.50;99.90
7502;DHT22;3792;47.740;7.606;2024-03-25T08:33:31;10.50;99.90
7502;DHT22;3792;47.740;7.606;2024-03-25T08:35:57;10.50;99.90
7502;DHT22;3792;47.740;7.606;2024-03-25T08:38:24;10.40;99.90
7502;DHT22;3792;47.740;7.606;2024-03-25T08:40:52;10.10;99.90
7502;DHT22;3792;47.740;7.606;2024-03-25T08:43:18;10.10;99.90
7502;DHT22;3792;47.740;7.606;2024-03-25T08:45:44;10.20;99.90
7502;DHT22;3792;47.740;7.606;2024-03-25T08:48:10;10.10;99.90
7502;DHT22;3792;47.740;7.606;2024-03-25T08:50:36;10.30;99.90
7502;DHT22;3792;47.740;7.606;2024-03-25T08:53:03;10.40;99.90
7502;DHT22;3792;47.740;7.606;2024-03-25T08:55:29;10.30;99.90
7502;DHT22;3792;47.740;7.606;2024-03-25T08:57:56;10.10;99.90
7502;DHT22;3792;47.740;7.606;2024-03-25T09:00:24;10.00;99.90
7502;DHT22;3792;47.740;7.606;2024-03-25T09:02:50;10.00;99.90
7502;DHT22;3792;47.740;7.606;2024-03-25T09:05:16;9.90;99.90
7502;DHT22;3792;47.740;7.606;2024-03-25T09:07:43;9.90;99.90
7502;DHT22;3792;47.740;7.606;2024-03-25T09:10:09;9.80;99.90
7502;DHT22;3792;47.740;7.606;2024-03-25T09:12:55;9.70;99.90
7502;DHT22;3792;47.740;7.606;2024-03-25T09:15:21;9.90;99.90
7502;DHT22;3792;47.740;7.606;2024-03-25T09:17:47;9.80;99.90
7502;DHT22;3792;47.740;7.606;2024-03-25T09:20:14;9.80;99.90
7502;DHT22;3792;47.740;7.606;2024-03-25T09:22:42;9.90;99.90
7502;DHT22;3792;47.740;7.606;2024-03-25T09:25:08;9.90;99.90
7502;DHT22;3792;47.740;7.606;2024-03-25T09:27:34;10.00;99.90
7502;DHT22;3792;47.740;7.606;2024-03-25T09:30:02;10.20;99.90
7502;DHT22;3792;47.740;7.606;2024-03-25T09:32:29;10.20;99.90
7502;DHT22;3792;47.740;7.606;2024-03-25T09:34:55;10.10;99.90
7502;DHT22;3792;47.740;7.606;2024-03-25T09:37:21;10.20;99.90
7502;DHT22;3792;47.740;7.606;2024-03-25T09:39:47;10.30;99.90
7502;DHT22;3792;47.740;7.606;2024-03-25T09:42:15;10.60;99.90
7502;DHT22;3792;47.740;7.606;2024-03-25T09:44:44;10.90;99.90
7502;DHT22;3792;47.740;7.606;2024-03-25T09:47:12;11.10;99.90
7502;DHT22;3792;47.740;7.606;2024-03-25T09:49:40;11.30;99.90
7502;DHT22;3792;47.740;7.606;2024-03-25T09:52:07;11.50;99.90
7502;DHT22;3792;47.740;7.606;2024-03-25T09:54:33;11.50;99.90
7502;DHT22;3792;47.740;7.606;2024-03-25T09:57:00;11.30;99.90
7502;DHT22;3792;47.740;7.606;2024-03-25T09:59:27;11.30;99.90
7502;DHT22;3792;47.740;7.606;2024-03-25T10:01:54;11.20;99.90
7502;DHT22;3792;47.740;7.606;2024-03-25T10:04:21;11.00;99.90
7502;DHT22;3792;47.740;7.606;2024-03-25T10:06:48;10.90;99.90
7502;DHT22;3792;47.740;7.606;2024-03-25T10:09:19;11.00;99.90
7502;DHT22;3792;47.740;7.606;2024-03-25T10:11:47;11.10;99.90
7502;DHT22;3792;47.740;7.606;2024-03-25T10:14:15;11.30;99.90
7502;DHT22;3792;47.740;7.606;2024-03-25T10:16:41;11.40;99.90
7502;DHT22;3792;47.740;7.606;2024-03-25T10:19:07;11.30;99.90
7502;DHT22;3792;47.740;7.606;2024-03-25T10:21:35;11.30;99.90
7502;DHT22;3792;47.740;7.606;2024-03-25T10:24:01;11.30;99.90
7502;DHT22;3792;47.740;7.606;2024-03-25T10:26:31;11.50;99.90
7502;DHT22;3792;47.740;7.606;2024-03-25T10:29:01;11.90;99.90
7502;DHT22;3792;47.740;7.606;2024-03-25T10:31:27;12.40;99.90
7502;DHT22;3792;47.740;7.606;2024-03-25T10:33:53;12.80;99.90
7502;DHT22;3792;47.740;7.606;2024-03-25T10:36:21;13.10;99.90
7502;DHT22;3792;47.740;7.606;2024-03-25T10:38:52;13.30;99.90
7502;DHT22;3792;47.740;7.606;2024-03-25T10:41:20;13.70;99.90
7502;DHT22;3792;47.740;7.606;2024-03-25T10:43:47;13.80;99.70
7502;DHT22;3792;47.740;7.606;2024-03-25T10:46:19;13.90;99.50
7502;DHT22;3792;47.740;7.606;2024-03-25T10:48:53;13.70;98.70
7502;DHT22;3792;47.740;7.606;2024-03-25T10:51:21;13.40;99.40
7502;DHT22;3792;47.740;7.606;2024-03-25T10:53:51;13.40;99.90
7502;DHT22;3792;47.740;7.606;2024-03-25T10:56:20;13.50;99.80
7502;DHT22;3792;47.740;7.606;2024-03-25T10:58:48;13.30;99.90
7502;DHT22;3792;47.740;7.606;2024-03-25T11:01:16;12.90;99.90
7502;DHT22;3792;47.740;7.606;2024-03-25T11:03:43;12.90;99.60
7502;DHT22;3792;47.740;7.606;2024-03-25T11:06:09;12.80;99.90
7502;DHT22;3792;47.740;7.606;2024-03-25T11:08:36;12.70;99.90
7502;DHT22;3792;47.740;7.606;2024-03-25T11:11:04;12.80;99.90
7502;DHT22;3792;47.740;7.606;2024-03-25T11:13:31;13.10;98.80
7502;DHT22;3792;47.740;7.606;2024-03-25T11:15:58;13.60;98.60
7502;DHT22;3792;47.740;7.606;2024-03-25T11:18:25;14.00;97.90
7502;DHT22;3792;47.740;7.606;2024-03-25T11:21:01;14.20;97.70
7502;DHT22;3792;47.740;7.606;2024-03-25T11:23:34;14.70;96.60
7502;DHT22;3792;47.740;7.606;2024-03-25T11:26:01;15.10;95.40
7502;DHT22;3792;47.740;7.606;2024-03-25T11:28:29;15.20;95.70
7502;DHT22;3792;47.740;7.606;2024-03-25T11:30:55;15.40;93.60
7502;DHT22;3792;47.740;7.606;2024-03-25T11:33:22;15.70;93.50
7502;DHT22;3792;47.740;7.606;2024-03-25T11:35:49;16.10;93.40
7502;DHT22;3792;47.740;7.606;2024-03-25T11:38:15;16.10;94.50
7502;DHT22;3792;47.740;7.606;2024-03-25T11:40:45;16.00;93.00
7502;DHT22;3792;47.740;7.606;2024-03-25T11:43:18;16.30;94.00
7502;DHT22;3792;47.740;7.606;2024-03-25T11:45:48;16.40;91.70
7502;DHT22;3792;47.740;7.606;2024-03-25T11:48:15;16.10;82.10
7502;DHT22;3792;47.740;7.606;2024-03-25T11:50:41;16.40;80.30
7502;DHT22;3792;47.740;7.606;2024-03-25T11:53:07;16.30;77.20
7502;DHT22;3792;47.740;7.606;2024-03-25T11:55:33;16.20;78.40
7502;DHT22;3792;47.740;7.606;2024-03-25T11:58:00;16.20;75.40
7502;DHT22;3792;47.740;7.606;2024-03-25T12:00:26;15.90;75.80
7502;DHT22;3792;47.740;7.606;2024-03-25T12:02:53;16.00;76.10
7502;DHT22;3792;47.740;7.606;2024-03-25T12:05:20;16.10;77.60
7502;DHT22;3792;47.740;7.606;2024-03-25T12:07:46;16.50;74.80
7502;DHT22;3792;47.740;7.606;2024-03-25T12:10:12;16.90;74.30
7502;DHT22;3792;47.740;7.606;2024-03-25T12:12:57;16.80;72.60
7502;DHT22;3792;47.740;7.606;2024-03-25T12:15:23;16.60;72.90
7502;DHT22;3792;47.740;7.606;2024-03-25T12:17:49;16.50;71.20
7502;DHT22;3792;47.740;7.606;2024-03-25T12:20:17;16.40;72.60
7502;DHT22;3792;47.740;7.606;2024-03-25T12:22:44;16.20;70.70
7502;DHT22;3792;47.740;7.606;2024-03-25T12:25:10;16.10;68.50
7502;DHT22;3792;47.740;7.606;2024-03-25T12:27:37;16.30;72.40
7502;DHT22;3792;47.740;7.606;2024-03-25T12:30:05;16.00;65.90
7502;DHT22;3792;47.740;7.606;2024-03-25T12:32:36;16.00;68.20
7502;DHT22;3792;47.740;7.606;2024-03-25T12:35:02;16.10;68.40
7502;DHT22;3792;47.740;7.606;2024-03-25T12:37:30;16.00;69.60
7502;DHT22;3792;47.740;7.606;2024-03-25T12:39:56;15.70;68.50
7502;DHT22;3792;47.740;7.606;2024-03-25T12:42:23;15.60;68.50
7502;DHT22;3792;47.740;7.606;2024-03-25T12:44:49;15.90;68.50
7502;DHT22;3792;47.740;7.606;2024-03-25T12:47:15;16.00;66.40
7502;DHT22;3792;47.740;7.606;2024-03-25T12:49:41;16.00;68.00
7502;DHT22;3792;47.740;7.606;2024-03-25T12:52:08;16.10;66.50
7502;DHT22;3792;47.740;7.606;2024-03-25T12:54:35;16.10;66.90
7502;DHT22;3792;47.740;7.606;2024-03-25T12:57:02;15.60;66.30
7502;DHT22;3792;47.740;7.606;2024-03-25T12:59:28;15.70;68.00
7502;DHT22;3792;47.740;7.606;2024-03-25T13:01:54;15.90;66.50
7502;DHT22;3792;47.740;7.606;2024-03-25T13:04:20;15.60;66.00
7502;DHT22;3792;47.740;7.606;2024-03-25T13:06:46;15.80;66.90
7502;DHT22;3792;47.740;7.606;2024-03-25T13:09:12;15.50;65.70
7502;DHT22;3792;47.740;7.606;2024-03-25T13:11:39;15.60;65.20
7502;DHT22;3792;47.740;7.606;2024-03-25T13:14:05;15.80;66.70
7502;DHT22;3792;47.740;7.606;2024-03-25T13:16:32;15.90;68.10
7502;DHT22;3792;47.740;7.606;2024-03-25T13:18:58;16.20;68.60
7502;DHT22;3792;47.740;7.606;2024-03-25T13:21:24;15.80;67.60
7502;DHT22;3792;47.740;7.606;2024-03-25T13:23:51;15.40;67.60
7502;DHT22;3792;47.740;7.606;2024-03-25T13:26:17;15.40;69.40
7502;DHT22;3792;47.740;7.606;2024-03-25T13:28:45;15.40;69.50
7502;DHT22;3792;47.740;7.606;2024-03-25T13:31:11;15.30;68.80
7502;DHT22;3792;47.740;7.606;2024-03-25T13:33:37;15.20;69.50
7502;DHT22;3792;47.740;7.606;2024-03-25T13:36:04;15.10;68.70
7502;DHT22;3792;47.740;7.606;2024-03-25T13:38:30;15.40;68.10
7502;DHT22;3792;47.740;7.606;2024-03-25T13:40:56;15.80;68.10
7502;DHT22;3792;47.740;7.606;2024-03-25T13:43:22;15.80;68.70
7502;DHT22;3792;47.740;7.606;2024-03-25T13:45:50;15.90;68.50
7502;DHT22;3792;47.740;7.606;2024-03-25T13:48:16;15.70;68.40
7502;DHT22;3792;47.740;7.606;2024-03-25T13:50:42;15.90;68.00
7502;DHT22;3792;47.740;7.606;2024-03-25T13:53:09;16.10;69.60
7502;DHT22;3792;47.740;7.606;2024-03-25T13:55:35;16.20;68.30
7502;DHT22;3792;47.740;7.606;2024-03-25T13:58:01;15.90;68.40
7502;DHT22;3792;47.740;7.606;2024-03-25T14:00:27;16.00;70.40
7502;DHT22;3792;47.740;7.606;2024-03-25T14:02:55;16.50;69.90
7502;DHT22;3792;47.740;7.606;2024-03-25T14:05:21;16.50;71.30
7502;DHT22;3792;47.740;7.606;2024-03-25T14:07:47;16.90;74.70
7502;DHT22;3792;47.740;7.606;2024-03-25T14:10:13;17.30;75.00
7502;DHT22;3792;47.740;7.606;2024-03-25T14:12:40;17.90;74.60
7502;DHT22;3792;47.740;7.606;2024-03-25T14:15:07;17.80;72.50
7502;DHT22;3792;47.740;7.606;2024-03-25T14:17:33;18.00;72.00
7502;DHT22;3792;47.740;7.606;2024-03-25T14:20:00;17.70;68.10
7502;DHT22;3792;47.740;7.606;2024-03-25T14:22:26;17.60;65.30
7502;DHT22;3792;47.740;7.606;2024-03-25T14:24:53;17.60;64.50
7502;DHT22;3792;47.740;7.606;2024-03-25T14:27:19;17.70;62.30
7502;DHT22;3792;47.740;7.606;2024-03-25T14:29:45;17.60;60.30
7502;DHT22;3792;47.740;7.606;2024-03-25T14:32:11;17.60;60.00
7502;DHT22;3792;47.740;7.606;2024-03-25T14:34:37;17.40;60.70
7502;DHT22;3792;47.740;7.606;2024-03-25T14:37:05;17.30;60.70
7502;DHT22;3792;47.740;7.606;2024-03-25T14:39:31;17.50;61.10
7502;DHT22;3792;47.740;7.606;2024-03-25T14:41:57;17.40;59.80
7502;DHT22;3792;47.740;7.606;2024-03-25T14:44:23;17.40;59.90
7502;DHT22;3792;47.740;7.606;2024-03-25T14:46:49;17.40;61.10
7502;DHT22;3792;47.740;7.606;2024-03-25T14:49:15;17.40;59.50
7502;DHT22;3792;47.740;7.606;2024-03-25T14:51:41;17.10;61.10
7502;DHT22;3792;47.740;7.606;2024-03-25T14:54:09;17.00;61.40
7502;DHT22;3792;47.740;7.606;2024-03-25T14:56:35;16.90;60.80
7502;DHT22;3792;47.740;7.606;2024-03-25T14:59:01;16.70;61.10
7502;DHT22;3792;47.740;7.606;2024-03-25T15:01:27;16.50;62.80
7502;DHT22;3792;47.740;7.606;2024-03-25T15:03:53;16.10;63.50
7502;DHT22;3792;47.740;7.606;2024-03-25T15:06:19;16.30;64.60
7502;DHT22;3792;47.740;7.606;2024-03-25T15:08:45;16.30;62.70
7502;DHT22;3792;47.740;7.606;2024-03-25T15:11:12;16.30;62.90
7502;DHT22;3792;47.740;7.606;2024-03-25T15:13:38;16.30;61.80
7502;DHT22;3792;47.740;7.606;2024-03-25T15:16:05;16.50;61.40
7502;DHT22;3792;47.740;7.606;2024-03-25T15:18:31;16.30;61.40
7502;DHT22;3792;47.740;7.606;2024-03-25T15:21:01;16.30;61.60
7502;DHT22;3792;47.740;7.606;2024-03-25T15:23:27;16.20;61.80
7502;DHT22;3792;47.740;7.606;2024-03-25T15:25:53;16.10;62.10
7502;DHT22;3792;47.740;7.606;2024-03-25T15:28:21;16.00;61.10
7502;DHT22;3792;47.740;7.606;2024-03-25T15:30:47;16.00;61.60
7502;DHT22;3792;47.740;7.606;2024-03-25T15:33:13;15.80;61.10
7502;DHT22;3792;47.740;7.606;2024-03-25T15:35:40;15.80;60.70
7502;DHT22;3792;47.740;7.606;2024-03-25T15:38:06;15.80;58.90
7502;DHT22;3792;47.740;7.606;2024-03-25T15:40:32;15.50;56.40
7502;DHT22;3792;47.740;7.606;2024-03-25T15:42:58;15.40;57.50
7502;DHT22;3792;47.740;7.606;2024-03-25T15:45:26;15.30;58.50
7502;DHT22;3792;47.740;7.606;2024-03-25T15:47:53;15.40;57.90
7502;DHT22;3792;47.740;7.606;2024-03-25T15:50:19;15.30;56.80
7502;DHT22;3792;47.740;7.606;2024-03-25T15:52:45;15.30;57.20
7502;DHT22;3792;47.740;7.606;2024-03-25T15:55:11;15.30;57.40
7502;DHT22;3792;47.740;7.606;2024-03-25T15:57:37;15.40;56.00
7502;DHT22;3792;47.740;7.606;2024-03-25T16:00:03;15.10;56.80
7502;DHT22;3792;47.740;7.606;2024-03-25T16:02:32;15.10;57.60
7502;DHT22;3792;47.740;7.606;2024-03-25T16:04:58;15.00;59.70
7502;DHT22;3792;47.740;7.606;2024-03-25T16:07:24;15.00;60.00